< Typhoon 196223 1962 Season Typhoon 196225 >
Typhoon 196224 (GILDA)
General InformationTrack Information on Google Maps || Disaster Info.ResourceGoogle EarthGE AnimationAtom FeedGeoJSON
Detalied Best Track (Time Zone = UTC)
Year Month Day Hour Lat. Long. Pressure (hPa) Wind (kt) Class Image Chart
1962 10 18 18 10.6 138.9 1003 0 2 -- Chart
1962 10 19 00 10.9 137.6 1004 0 2 -- Chart
1962 10 19 06 11.3 136.2 1002 0 2 -- Chart
1962 10 19 12 11.8 134.8 1002 0 2 -- Chart
1962 10 19 18 12.3 133.5 1000 0 2 -- Chart
1962 10 20 00 12.5 132.9 1000 0 2 -- Chart
1962 10 20 06 13.0 132.7 1000 0 2 -- Chart
1962 10 20 12 13.4 132.6 1000 0 2 -- Chart
1962 10 20 18 13.8 132.6 1000 0 2 -- Chart
1962 10 21 00 14.3 132.5 1000 0 2 -- Chart
1962 10 21 06 14.6 132.4 1000 0 2 -- Chart
1962 10 21 12 14.8 132.4 1000 0 2 -- Chart
1962 10 21 18 15.0 132.4 1000 0 2 -- Chart
1962 10 22 00 15.2 132.4 998 0 2 -- Chart
1962 10 22 06 15.4 132.4 995 0 2 -- Chart
1962 10 22 12 15.6 132.4 994 0 2 -- Chart
1962 10 22 18 15.7 132.3 992 0 9 -- Chart
1962 10 23 00 15.6 132.2 992 0 9 -- Chart
1962 10 23 06 15.4 132.3 980 0 9 -- Chart
1962 10 23 12 15.5 132.5 980 0 9 -- Chart
1962 10 23 18 15.3 132.4 980 0 9 -- Chart
1962 10 24 00 15.4 131.9 980 0 9 -- Chart
1962 10 24 06 15.7 131.0 980 0 9 -- Chart
1962 10 24 12 15.8 130.1 975 0 9 -- Chart
1962 10 24 18 15.7 129.3 970 0 9 -- Chart
1962 10 25 00 15.5 128.4 970 0 9 -- Chart
1962 10 25 06 15.5 127.5 965 0 9 -- Chart
1962 10 25 12 15.7 126.4 960 0 9 -- Chart
1962 10 25 18 16.2 126.0 960 0 9 -- Chart
1962 10 26 00 16.7 125.6 960 0 9 -- Chart
1962 10 26 06 16.8 125.3 960 0 9 -- Chart
1962 10 26 12 17.0 125.2 955 0 9 -- Chart
1962 10 26 18 17.5 125.3 955 0 9 -- Chart
1962 10 27 00 17.9 125.5 955 0 9 -- Chart
1962 10 27 06 18.3 126.1 955 0 9 -- Chart
1962 10 27 12 18.7 126.6 955 0 9 -- Chart
1962 10 27 18 19.3 127.5 955 0 9 -- Chart
1962 10 28 00 20.1 128.4 955 0 9 -- Chart
1962 10 28 06 21.0 129.4 955 0 9 -- Chart
1962 10 28 12 21.7 130.4 955 0 9 -- Chart
1962 10 28 18 22.6 131.7 955 0 9 -- Chart
1962 10 29 00 23.1 133.0 955 0 9 -- Chart
1962 10 29 06 23.9 134.2 965 0 9 -- Chart
1962 10 29 12 24.8 135.5 965 0 9 -- Chart
1962 10 29 18 26.0 137.0 965 0 9 -- Chart
1962 10 30 00 27.7 139.5 970 0 9 -- Chart
1962 10 30 06 30.1 142.6 970 0 9 -- Chart
1962 10 30 12 32.3 146.0 970 0 9 -- Chart
1962 10 30 18 35.0 150.7 975 0 9 -- Chart
1962 10 31 00 37.4 155.2 984 0 6 -- Chart
1962 10 31 06 39.8 159.1 992 0 6 -- Chart
1962 10 31 12 42.0 165.9 992 0 6 -- Chart
1962 10 31 18 43.0 172.0 992 0 6 -- Chart
1962 11 1 00 44.0 178.1 992 0 6 -- Chart
1962 11 1 06 44.7 184.5 992 0 6 -- Chart
Japan Meteorological Agency Best Track Data | Correction Date : 1989-06-01
< Typhoon 196223 1962 Season Typhoon 196225 >

Help